Terminal Aerodrome Forecast
Issued by NWS

Home | Current Version | Previous Version | Graphics & Text | Print | Product List | Glossary On
Versions: 1 2 3 4 5 6 7 8 9 10 11 12 13 14 15 16 17
000
FTUS43 KICT 251120
TAFRSL
TAF
KRSL 251120Z 2512/2612 18014KT P6SM OVC200
     FM251500 18015G25KT P6SM BKN200
     FM260000 19010KT P6SM SCT200
     FM260500 35013KT P6SM SCT015=

USA.gov is the U.S. government's official web portal to all federal, state and local government web resources and services.